createdAt,value
2023-04-26T00:00:53.600Z,3.63
2023-04-26T00:03:20.988Z,4.30
2023-04-26T00:05:49.212Z,4.50
2023-04-26T00:08:16.463Z,4.63
2023-04-26T00:10:43.651Z,5.15
2023-04-26T00:13:11.199Z,4.65
2023-04-26T00:15:38.452Z,4.43
2023-04-26T00:18:06.120Z,5.25
2023-04-26T00:20:34.090Z,5.20
2023-04-26T00:23:01.302Z,4.15
2023-04-26T00:25:28.572Z,4.22
2023-04-26T00:27:56.283Z,4.22
2023-04-26T00:30:23.561Z,4.60
2023-04-26T00:32:50.933Z,5.90
2023-04-26T00:35:18.509Z,5.40
2023-04-26T00:37:46.436Z,5.00
2023-04-26T00:40:16.502Z,5.00
2023-04-26T00:42:43.702Z,4.95
2023-04-26T00:45:11.035Z,5.18
2023-04-26T00:47:38.318Z,5.57
2023-04-26T00:50:08.261Z,6.00
2023-04-26T00:52:36.065Z,5.65
2023-04-26T00:55:03.470Z,6.68
2023-04-26T00:57:30.721Z,5.78
2023-04-26T00:59:58.024Z,6.80
2023-04-26T01:02:26.972Z,5.70
2023-04-26T01:04:54.378Z,5.82
2023-04-26T01:07:21.544Z,6.55
2023-04-26T01:09:50.082Z,5.15
2023-04-26T01:12:17.465Z,5.75
2023-04-26T01:14:46.114Z,5.45
2023-04-26T01:17:13.376Z,6.85
2023-04-26T01:19:48.598Z,5.90
2023-04-26T01:22:16.553Z,7.22
2023-04-26T01:24:46.461Z,7.13
2023-04-26T01:27:13.796Z,7.38
2023-04-26T01:29:41.584Z,6.55
2023-04-26T01:32:08.925Z,6.45
2023-04-26T01:34:37.450Z,6.90
2023-04-26T01:37:04.688Z,6.65
2023-04-26T01:39:31.790Z,5.72
2023-04-26T01:41:59.195Z,5.63
2023-04-26T01:44:26.388Z,5.97
2023-04-26T01:46:53.651Z,6.53
2023-04-26T01:49:20.931Z,6.63
2023-04-26T01:51:48.517Z,6.95
2023-04-26T01:54:15.806Z,6.72
2023-04-26T01:56:43.123Z,6.50
2023-04-26T01:59:10.328Z,6.40
2023-04-26T02:01:37.652Z,5.28
2023-04-26T02:04:06.659Z,6.05
2023-04-26T02:06:33.968Z,5.25
2023-04-26T02:09:01.119Z,5.30
2023-04-26T02:11:28.448Z,6.15
2023-04-26T02:13:55.603Z,5.60
2023-04-26T02:16:23.007Z,5.53
2023-04-26T02:18:50.572Z,5.57
2023-04-26T02:21:18.706Z,5.40
2023-04-26T02:23:46.045Z,6.22
2023-04-26T02:26:15.464Z,5.65
2023-04-26T02:28:43.826Z,5.78
2023-04-26T02:31:11.469Z,5.68
2023-04-26T02:33:38.861Z,6.03
2023-04-26T02:36:07.109Z,5.45
2023-04-26T02:38:36.445Z,5.18
2023-04-26T02:41:05.672Z,5.07
2023-04-26T02:43:33.843Z,4.80
2023-04-26T02:46:01.753Z,5.32
2023-04-26T02:48:31.133Z,5.88
2023-04-26T02:50:58.554Z,5.75
2023-04-26T02:53:25.798Z,4.72
2023-04-26T02:55:53.199Z,4.90
2023-04-26T02:58:20.348Z,4.07
2023-04-26T03:00:48.473Z,5.45
2023-04-26T03:03:17.084Z,5.15
2023-04-26T03:05:46.436Z,5.30
2023-04-26T03:08:14.416Z,5.82
2023-04-26T03:10:42.002Z,5.45
2023-04-26T03:13:09.349Z,6.40
2023-04-26T03:15:36.579Z,4.78
2023-04-26T03:18:03.880Z,6.20
2023-04-26T03:20:31.723Z,5.65
2023-04-26T03:22:59.550Z,4.78
2023-04-26T03:25:26.950Z,5.20
2023-04-26T03:27:55.391Z,6.63
2023-04-26T03:30:23.300Z,5.22
2023-04-26T03:32:50.780Z,6.15
2023-04-26T03:35:18.392Z,6.35
2023-04-26T03:37:45.727Z,4.68
2023-04-26T03:40:17.426Z,5.03
2023-04-26T03:42:46.255Z,5.63
2023-04-26T03:45:13.443Z,5.57
2023-04-26T03:47:40.930Z,5.40
2023-04-26T03:50:08.982Z,4.45
2023-04-26T03:52:36.325Z,5.07
2023-04-26T03:55:03.730Z,4.30
2023-04-26T03:57:31.563Z,4.88
2023-04-26T03:59:58.949Z,4.90
2023-04-26T04:02:26.929Z,5.45
2023-04-26T04:04:54.375Z,5.07
2023-04-26T04:07:21.935Z,4.63
2023-04-26T04:09:49.289Z,4.53
2023-04-26T04:12:16.540Z,5.63
2023-04-26T04:14:44.458Z,5.88
2023-04-26T04:17:12.163Z,4.90
2023-04-26T04:19:39.690Z,5.63
2023-04-26T04:22:07.128Z,6.60
2023-04-26T04:24:34.871Z,5.75
2023-04-26T04:27:03.466Z,5.53
2023-04-26T04:29:32.841Z,5.80
2023-04-26T04:32:00.245Z,4.85
2023-04-26T04:34:28.358Z,4.78
2023-04-26T04:36:55.574Z,3.78
2023-04-26T04:39:23.603Z,5.50
2023-04-26T04:41:51.428Z,4.78
2023-04-26T04:44:19.760Z,5.63
2023-04-26T04:46:48.282Z,4.68
2023-04-26T04:49:16.089Z,5.25
2023-04-26T04:51:43.744Z,5.63
2023-04-26T04:54:13.810Z,5.13
2023-04-26T04:56:41.352Z,4.57
2023-04-26T04:59:08.873Z,4.60
2023-04-26T05:01:37.652Z,3.90
2023-04-26T05:04:09.190Z,6.82
2023-04-26T05:06:36.649Z,6.38
2023-04-26T05:09:05.959Z,7.63
2023-04-26T05:11:33.812Z,7.63
2023-04-26T05:14:02.498Z,6.97
2023-04-26T05:16:31.010Z,7.10
2023-04-26T05:19:00.139Z,6.63
2023-04-26T05:21:27.488Z,4.63
2023-04-26T05:23:55.041Z,7.68
2023-04-26T05:26:22.542Z,6.38
2023-04-26T05:28:51.289Z,6.78
2023-04-26T05:31:20.186Z,5.30
2023-04-26T05:33:48.903Z,4.68
2023-04-26T05:36:19.675Z,4.50
2023-04-26T05:38:46.894Z,5.13
2023-04-26T05:41:14.934Z,4.85
2023-04-26T05:43:42.052Z,6.03
2023-04-26T05:46:09.510Z,4.30
2023-04-26T05:48:36.781Z,6.78
2023-04-26T05:51:04.175Z,5.45
2023-04-26T05:53:31.688Z,5.47
2023-04-26T05:55:59.532Z,5.20
2023-04-26T05:58:26.970Z,5.78
2023-04-26T06:00:56.907Z,5.82
2023-04-26T06:03:24.896Z,5.10
2023-04-26T06:05:53.047Z,5.65
2023-04-26T06:08:22.646Z,4.82
2023-04-26T06:10:50.644Z,5.55
2023-04-26T06:13:17.995Z,5.43
2023-04-26T06:15:45.573Z,5.78
2023-04-26T06:18:12.949Z,3.90
2023-04-26T06:20:40.472Z,4.07
2023-04-26T06:23:08.129Z,3.85
2023-04-26T06:25:37.330Z,3.90
2023-04-26T06:28:05.175Z,3.20
2023-04-26T06:30:32.723Z,2.75
2023-04-26T06:33:01.187Z,2.30
2023-04-26T06:35:31.569Z,1.90
2023-04-26T06:37:59.579Z,1.90
2023-04-26T06:40:27.845Z,2.22
2023-04-26T06:42:55.682Z,2.80
2023-04-26T06:45:36.479Z,3.10
2023-04-26T06:48:05.058Z,4.97
2023-04-26T06:50:33.463Z,7.50
2023-04-26T06:53:00.976Z,7.60
2023-04-26T06:55:28.225Z,5.35
2023-04-26T06:57:57.176Z,4.80
2023-04-26T07:00:24.709Z,3.33
2023-04-26T07:02:52.177Z,4.40
2023-04-26T07:05:19.715Z,4.32
2023-04-26T07:07:47.379Z,4.35
2023-04-26T07:10:14.821Z,3.40
2023-04-26T07:12:42.203Z,2.33
2023-04-26T07:15:10.684Z,2.17
2023-04-26T07:17:38.138Z,1.90
2023-04-26T07:20:06.376Z,2.22
2023-04-26T07:22:33.916Z,1.83
2023-04-26T07:25:01.203Z,1.52
2023-04-26T07:27:28.565Z,2.67
2023-04-26T07:29:56.432Z,2.47
2023-04-26T07:32:23.960Z,2.80
2023-04-26T07:34:51.368Z,2.70
2023-04-26T07:37:18.944Z,2.72
2023-04-26T07:39:46.209Z,1.80
2023-04-26T07:42:13.579Z,2.05
2023-04-26T07:44:41.084Z,2.85
2023-04-26T07:47:15.841Z,2.83
2023-04-26T07:49:44.045Z,2.88
2023-04-26T07:52:12.668Z,2.50
2023-04-26T07:54:40.605Z,2.10
2023-04-26T07:57:08.021Z,1.73
2023-04-26T07:59:35.397Z,1.73
2023-04-26T08:02:02.752Z,1.70
2023-04-26T08:04:33.857Z,1.80
2023-04-26T08:07:02.365Z,1.80
2023-04-26T08:09:30.845Z,1.75
2023-04-26T08:11:58.682Z,2.10
2023-04-26T08:14:25.996Z,2.38
2023-04-26T08:16:53.796Z,2.80
2023-04-26T08:19:21.635Z,2.58
2023-04-26T08:21:49.065Z,3.40
2023-04-26T08:24:16.359Z,2.42
2023-04-26T08:26:43.825Z,2.08
2023-04-26T08:29:11.186Z,2.80
2023-04-26T08:34:06.507Z,2.63
2023-04-26T08:36:37.724Z,3.88
2023-04-26T08:39:05.249Z,4.00
2023-04-26T08:41:37.773Z,5.15
2023-04-26T08:44:06.432Z,4.97
2023-04-26T08:46:43.858Z,2.72
2023-04-26T08:49:27.724Z,1.52
2023-04-26T08:51:57.116Z,1.30
2023-04-26T08:54:26.116Z,1.33
2023-04-26T08:56:55.938Z,1.50
2023-04-26T08:59:23.897Z,1.35
2023-04-26T09:01:52.108Z,1.20
2023-04-26T09:04:19.763Z,1.10
2023-04-26T09:06:48.946Z,1.13
2023-04-26T09:09:20.330Z,1.20
2023-04-26T09:11:50.795Z,1.30
2023-04-26T09:14:18.312Z,1.17
2023-04-26T09:16:45.740Z,1.20
2023-04-26T09:19:13.138Z,1.00
2023-04-26T09:21:43.684Z,1.40
2023-04-26T09:24:11.534Z,1.20
2023-04-26T09:26:39.223Z,1.33
2023-04-26T09:29:21.434Z,1.02
2023-04-26T09:31:50.356Z,1.30
2023-04-26T09:34:17.841Z,1.50
2023-04-26T09:36:51.928Z,1.55
2023-04-26T09:39:22.543Z,1.40
2023-04-26T09:41:49.892Z,1.50
2023-04-26T09:44:20.352Z,1.60
2023-04-26T09:47:00.329Z,1.80
2023-04-26T09:49:29.242Z,2.03
2023-04-26T09:51:59.651Z,1.90
2023-04-26T09:54:30.355Z,2.83
2023-04-26T09:56:59.977Z,2.95
2023-04-26T09:59:41.479Z,1.42
2023-04-26T10:02:12.889Z,1.60
2023-04-26T10:04:40.628Z,1.40
2023-04-26T10:07:08.008Z,1.30
2023-04-26T10:09:35.770Z,1.20
2023-04-26T10:12:03.501Z,1.42
2023-04-26T10:14:31.491Z,1.70
2023-04-26T10:16:58.987Z,2.28
2023-04-26T10:19:26.722Z,2.00
2023-04-26T10:21:58.247Z,1.50
2023-04-26T10:24:26.673Z,1.50
2023-04-26T10:26:56.941Z,1.35
2023-04-26T10:29:26.348Z,1.40
2023-04-26T10:31:56.786Z,1.40
2023-04-26T10:34:24.195Z,1.42
2023-04-26T10:36:54.571Z,1.25
2023-04-26T10:39:22.324Z,1.48
2023-04-26T10:41:49.734Z,1.17
2023-04-26T10:44:20.455Z,1.33
2023-04-26T10:46:52.853Z,1.40
2023-04-26T10:49:26.274Z,1.35
2023-04-26T10:51:57.098Z,1.40
2023-04-26T10:54:24.669Z,1.60
2023-04-26T10:56:52.247Z,1.45
2023-04-26T10:59:39.869Z,1.27
2023-04-26T11:02:11.321Z,1.30
2023-04-26T11:04:53.736Z,1.48
2023-04-26T11:07:24.779Z,1.30
2023-04-26T11:09:52.988Z,1.52
2023-04-26T11:12:22.766Z,1.50
2023-04-26T11:14:50.208Z,1.95
2023-04-26T11:17:17.684Z,1.77
2023-04-26T11:19:48.216Z,1.90
2023-04-26T11:22:15.897Z,1.95
2023-04-26T11:24:43.502Z,2.25
2023-04-26T11:27:12.223Z,2.40
2023-04-26T11:29:40.336Z,2.08
2023-04-26T11:32:08.307Z,1.80
2023-04-26T11:34:38.343Z,2.70
2023-04-26T11:37:07.276Z,3.00
2023-04-26T11:39:35.714Z,5.32
2023-04-26T11:42:06.438Z,5.53
2023-04-26T11:44:34.538Z,3.50
2023-04-26T11:47:04.490Z,2.70
2023-04-26T11:49:33.016Z,2.60
2023-04-26T11:52:01.780Z,3.38
2023-04-26T11:54:32.033Z,2.97
2023-04-26T11:56:59.617Z,2.58
2023-04-26T11:59:29.435Z,2.30
2023-04-26T12:01:58.425Z,2.22
2023-04-26T12:04:30.376Z,2.50
2023-04-26T12:06:58.735Z,2.42
2023-04-26T12:09:28.778Z,2.50
2023-04-26T12:11:59.301Z,2.55
2023-04-26T12:14:34.546Z,2.50
2023-04-26T12:17:03.615Z,2.30
2023-04-26T12:19:33.301Z,2.25
2023-04-26T12:22:00.734Z,2.10
2023-04-26T12:24:30.682Z,2.40
2023-04-26T12:27:00.188Z,2.55
2023-04-26T12:29:30.856Z,2.25
2023-04-26T12:31:59.319Z,2.08
2023-04-26T12:34:26.723Z,2.47
2023-04-26T12:36:55.205Z,2.45
2023-04-26T12:39:22.510Z,2.70
2023-04-26T12:41:49.964Z,2.97
2023-04-26T12:44:19.583Z,4.35
2023-04-26T12:46:48.950Z,4.53
2023-04-26T12:49:16.264Z,3.83
2023-04-26T12:51:43.836Z,3.65
2023-04-26T12:54:11.292Z,3.30
2023-04-26T12:56:44.116Z,3.33
2023-04-26T12:59:11.626Z,5.10
2023-04-26T13:01:38.959Z,5.25
2023-04-26T13:04:06.862Z,3.75
2023-04-26T13:06:35.446Z,2.67
2023-04-26T13:09:02.988Z,2.72
2023-04-26T13:11:30.317Z,3.47
2023-04-26T13:13:57.980Z,4.25
2023-04-26T13:16:25.621Z,3.60
2023-04-26T13:18:53.003Z,2.50
2023-04-26T13:21:20.376Z,2.50
2023-04-26T13:23:47.727Z,2.80
2023-04-26T13:26:17.642Z,2.67
2023-04-26T13:28:45.104Z,5.40
2023-04-26T13:31:12.582Z,6.60
2023-04-26T13:33:40.013Z,5.50
2023-04-26T13:36:07.629Z,4.40
2023-04-26T13:38:35.054Z,2.60
2023-04-26T13:41:03.131Z,2.30
2023-04-26T13:43:30.568Z,2.22
2023-04-26T13:45:57.952Z,2.42
2023-04-26T13:48:25.386Z,1.90
2023-04-26T13:50:52.905Z,1.70
2023-04-26T13:53:20.300Z,1.40
2023-04-26T13:55:48.095Z,1.50
2023-04-26T13:58:15.906Z,1.60
2023-04-26T14:00:43.394Z,1.50
2023-04-26T14:03:10.937Z,1.42
2023-04-26T14:05:38.369Z,1.55
2023-04-26T14:08:06.125Z,1.73
2023-04-26T14:10:33.458Z,1.40
2023-04-26T14:13:00.955Z,1.63
2023-04-26T14:15:28.314Z,1.60
2023-04-26T14:17:56.496Z,1.58
2023-04-26T14:20:23.945Z,1.58
2023-04-26T14:22:51.376Z,2.03
2023-04-26T14:25:19.076Z,1.70
2023-04-26T14:27:46.508Z,1.48
2023-04-26T14:30:14.288Z,1.70
2023-04-26T14:32:41.939Z,1.70
2023-04-26T14:35:09.642Z,1.90
2023-04-26T14:37:37.132Z,1.83
2023-04-26T14:40:06.333Z,1.60
2023-04-26T14:42:34.027Z,1.90
2023-04-26T14:45:01.389Z,1.77
2023-04-26T14:47:29.668Z,1.80
2023-04-26T14:49:57.897Z,1.90
2023-04-26T14:52:28.178Z,1.80
2023-04-26T14:54:55.475Z,1.80
2023-04-26T14:57:23.134Z,1.70
2023-04-26T14:59:50.546Z,1.70
2023-04-26T15:02:18.048Z,2.00
2023-04-26T15:04:45.673Z,1.80
2023-04-26T15:07:24.900Z,1.80
2023-04-26T15:09:58.636Z,1.65
2023-04-26T15:12:26.047Z,1.90
2023-04-26T15:14:53.629Z,1.40
2023-04-26T15:17:21.016Z,1.80
2023-04-26T15:19:48.435Z,1.60
2023-04-26T15:22:15.994Z,1.50
2023-04-26T15:24:44.001Z,1.90
2023-04-26T15:27:11.483Z,1.70
2023-04-26T15:29:38.743Z,1.73
2023-04-26T15:32:06.381Z,2.10
2023-04-26T15:34:43.872Z,2.40
2023-04-26T15:37:11.978Z,2.10
2023-04-26T15:39:39.357Z,1.77
2023-04-26T15:42:06.943Z,2.00
2023-04-26T15:44:34.343Z,1.90
2023-04-26T15:47:02.603Z,2.03
2023-04-26T15:49:30.287Z,1.95
2023-04-26T15:51:57.852Z,1.83
2023-04-26T15:54:26.575Z,2.30
2023-04-26T15:56:55.392Z,2.20
2023-04-26T15:59:22.813Z,2.20
2023-04-26T16:01:50.253Z,2.10
2023-04-26T16:04:17.574Z,2.05
2023-04-26T16:06:45.085Z,1.70
2023-04-26T16:09:24.871Z,1.83
2023-04-26T16:11:53.387Z,2.05
2023-04-26T16:14:20.834Z,1.65
2023-04-26T16:16:48.280Z,2.03
2023-04-26T16:19:17.517Z,1.90
2023-04-26T16:21:45.001Z,2.17
2023-04-26T16:24:12.505Z,2.20
2023-04-26T16:26:40.032Z,2.67
2023-04-26T16:29:07.316Z,2.50
2023-04-26T16:31:34.911Z,2.30
2023-04-26T16:34:02.491Z,1.85
2023-04-26T16:36:29.927Z,2.50
2023-04-26T16:38:57.153Z,2.50
2023-04-26T16:41:26.859Z,2.65
2023-04-26T16:43:55.175Z,2.03
2023-04-26T16:46:22.672Z,1.88
2023-04-26T16:48:50.115Z,1.98
2023-04-26T16:51:17.530Z,1.98
2023-04-26T16:53:44.790Z,1.67
2023-04-26T16:56:12.156Z,1.45
2023-04-26T16:58:39.446Z,1.73
2023-04-26T17:01:06.952Z,1.30
2023-04-26T17:03:34.446Z,1.35
2023-04-26T17:06:01.945Z,1.50
2023-04-26T17:08:29.355Z,1.52
2023-04-26T17:10:57.057Z,1.50
2023-04-26T17:13:29.507Z,1.13
2023-04-26T17:15:57.261Z,1.40
2023-04-26T17:18:24.774Z,1.27
2023-04-26T17:20:53.853Z,1.50
2023-04-26T17:23:21.261Z,1.48
2023-04-26T17:25:48.899Z,1.30
2023-04-26T17:28:16.595Z,1.55
2023-04-26T17:30:44.032Z,1.50
2023-04-26T17:33:11.679Z,1.50
2023-04-26T17:35:39.116Z,1.65
2023-04-26T17:38:06.396Z,2.25
2023-04-26T17:40:33.861Z,2.58
2023-04-26T17:43:01.487Z,2.38
2023-04-26T17:45:28.993Z,1.95
2023-04-26T17:47:56.411Z,1.48
2023-04-26T17:50:24.094Z,1.40
2023-04-26T17:52:51.503Z,1.25
2023-04-26T17:55:19.023Z,1.42
2023-04-26T17:57:46.890Z,1.40
2023-04-26T18:00:15.073Z,1.30
2023-04-26T18:02:44.290Z,1.50
2023-04-26T18:05:12.040Z,1.38
2023-04-26T18:07:39.381Z,1.50
2023-04-26T18:10:07.417Z,1.70
2023-04-26T18:12:35.523Z,1.55
2023-04-26T18:15:03.053Z,1.80
2023-04-26T18:17:30.637Z,1.80
2023-04-26T18:19:58.063Z,2.13
2023-04-26T18:22:25.440Z,1.98
2023-04-26T18:24:52.875Z,1.60
2023-04-26T18:27:20.164Z,1.70
2023-04-26T18:29:49.320Z,1.50
2023-04-26T18:32:16.959Z,1.40
2023-04-26T18:34:44.404Z,1.40
2023-04-26T18:37:11.725Z,1.55
2023-04-26T18:39:39.182Z,1.38
2023-04-26T18:42:06.592Z,1.45
2023-04-26T18:44:33.911Z,1.60
2023-04-26T18:47:01.324Z,1.35
2023-04-26T18:49:28.903Z,1.42
2023-04-26T18:51:57.362Z,1.55
2023-04-26T18:54:26.483Z,1.33
2023-04-26T18:56:54.288Z,1.40
2023-04-26T18:59:21.763Z,1.58
2023-04-26T19:01:49.454Z,1.40
2023-04-26T19:04:17.230Z,1.20
2023-04-26T19:06:44.584Z,1.75
2023-04-26T19:09:12.019Z,1.50
2023-04-26T19:11:40.293Z,1.63
2023-04-26T19:14:07.551Z,1.50
2023-04-26T19:16:35.769Z,1.50
2023-04-26T19:19:03.360Z,1.30
2023-04-26T19:21:31.512Z,1.35
2023-04-26T19:23:58.770Z,1.50
2023-04-26T19:26:25.916Z,1.50
2023-04-26T19:28:55.566Z,1.42
2023-04-26T19:31:22.921Z,1.50
2023-04-26T19:33:50.270Z,1.40
2023-04-26T19:36:17.456Z,1.55
2023-04-26T19:38:44.860Z,1.60
2023-04-26T19:41:12.029Z,1.55
2023-04-26T19:43:39.330Z,1.60
2023-04-26T19:46:09.640Z,1.40
2023-04-26T19:48:36.951Z,1.50
2023-04-26T19:51:04.191Z,1.58
2023-04-26T19:53:32.077Z,1.60
2023-04-26T19:55:59.340Z,1.70
2023-04-26T19:58:26.867Z,1.58
2023-04-26T20:00:54.088Z,1.60
2023-04-26T20:03:21.413Z,1.80
2023-04-26T20:05:49.598Z,1.70
2023-04-26T20:08:17.033Z,1.63
2023-04-26T20:10:44.202Z,1.50
2023-04-26T20:13:11.605Z,1.80
2023-04-26T20:15:38.873Z,2.25
2023-04-26T20:18:06.453Z,1.90
2023-04-26T20:20:33.722Z,1.90
2023-04-26T20:23:01.233Z,1.88
2023-04-26T20:25:28.434Z,1.70
2023-04-26T20:27:56.901Z,2.05
2023-04-26T20:30:24.215Z,2.10
2023-04-26T20:32:51.495Z,1.90
2023-04-26T20:35:18.720Z,1.95
2023-04-26T20:37:46.073Z,2.30
2023-04-26T20:40:13.201Z,2.30
2023-04-26T20:42:40.860Z,2.30
2023-04-26T20:45:09.083Z,2.13
2023-04-26T20:47:37.144Z,2.05
2023-04-26T20:50:05.766Z,2.10
2023-04-26T20:52:33.093Z,2.42
2023-04-26T20:55:00.444Z,2.30
2023-04-26T20:57:27.728Z,2.35
2023-04-26T20:59:54.953Z,2.70
2023-04-26T21:02:22.384Z,2.50
2023-04-26T21:04:49.721Z,2.85
2023-04-26T21:07:17.239Z,3.05
2023-04-26T21:09:44.372Z,3.30
2023-04-26T21:12:11.604Z,3.58
2023-04-26T21:14:38.829Z,3.70
2023-04-26T21:17:06.144Z,3.97
2023-04-26T21:19:33.303Z,3.00
2023-04-26T21:22:00.592Z,3.05
2023-04-26T21:24:27.747Z,3.58
2023-04-26T21:26:55.037Z,3.67
2023-04-26T21:29:22.264Z,4.03
2023-04-26T21:31:49.729Z,3.45
2023-04-26T21:34:17.666Z,3.28
2023-04-26T21:36:45.082Z,2.97
2023-04-26T21:39:12.427Z,3.03
2023-04-26T21:41:40.156Z,2.85
2023-04-26T21:44:07.456Z,2.47
2023-04-26T21:46:34.940Z,2.80
2023-04-26T21:49:02.122Z,2.40
2023-04-26T21:51:29.501Z,2.78
2023-04-26T21:53:56.745Z,2.30
2023-04-26T21:56:24.213Z,2.72
2023-04-26T21:58:51.449Z,3.25
2023-04-26T22:01:18.796Z,2.72
2023-04-26T22:03:46.183Z,2.65
2023-04-26T22:06:13.564Z,3.00
2023-04-26T22:08:41.305Z,3.15
2023-04-26T22:11:08.576Z,2.97
2023-04-26T22:13:35.955Z,3.08
2023-04-26T22:16:03.349Z,2.65
2023-04-26T22:18:30.577Z,2.70
2023-04-26T22:20:57.863Z,2.70
2023-04-26T22:23:25.093Z,3.60
2023-04-26T22:25:52.505Z,2.95
2023-04-26T22:28:19.726Z,2.80
2023-04-26T22:30:47.246Z,2.55
2023-04-26T22:33:14.395Z,2.80
2023-04-26T22:35:41.786Z,3.10
2023-04-26T22:38:08.915Z,2.92
2023-04-26T22:40:36.433Z,2.65
2023-04-26T22:43:03.719Z,2.60
2023-04-26T22:45:31.012Z,2.60
2023-04-26T22:47:58.626Z,2.80
2023-04-26T22:50:26.097Z,2.45
2023-04-26T22:52:53.225Z,2.80
2023-04-26T22:55:20.694Z,3.28
2023-04-26T22:57:47.982Z,3.42
2023-04-26T23:00:16.014Z,5.05
2023-04-26T23:02:43.385Z,3.10
2023-04-26T23:05:11.202Z,2.72
2023-04-26T23:07:39.758Z,4.30
2023-04-26T23:10:07.518Z,3.70
2023-04-26T23:12:36.193Z,3.75
2023-04-26T23:15:05.361Z,3.10
2023-04-26T23:17:34.163Z,2.75
2023-04-26T23:20:02.177Z,2.50
2023-04-26T23:22:29.411Z,2.00
2023-04-26T23:24:56.816Z,1.95
2023-04-26T23:27:25.145Z,1.92
2023-04-26T23:29:52.402Z,2.25
2023-04-26T23:32:19.571Z,2.30
2023-04-26T23:34:47.064Z,2.90
2023-04-26T23:37:14.235Z,2.65
2023-04-26T23:39:41.555Z,3.30
2023-04-26T23:42:08.911Z,3.30
2023-04-26T23:44:36.268Z,5.15
2023-04-26T23:47:03.444Z,5.63
2023-04-26T23:49:30.934Z,3.40
2023-04-26T23:51:58.090Z,4.47
2023-04-26T23:54:25.454Z,4.50
2023-04-26T23:56:52.660Z,5.82
2023-04-26T23:59:21.815Z,5.13
